M I D A S
Marine Information and Data Acquisition System
Tripno 216 of the Zeeleeuw from 2002-02-13 08:35:00 to 2002-02-13 15:01:13
Back to CruiseResearch ActivitiesStationsMapUnderway DataData graphs

EquipmentUnitsComments
TimeDGPSUTC
LatitudeDGPSDM.mWGS84
LongitudeDGPSDM.mWGS84
SpeedMeteo Stationm/sRelative wind speed
DirectionMeteo StationdegRelative wind direction
TemperatureMeteo Stationdeg CelciusAir temperature
PressureMeteo StationPaAtmospheric pressure
HumidityMeteo Station%Relative humidity
Missing or incorrect values are displayed as -999
Metereological data collected by the RV Zeeleeuw from 2002-02-13 08:35:00 to 2002-02-13 15:01:13
Time Latitude Longitude Speed Direction Temperature Pressure Humidity
2002-02-13 10:04 51°8.336 2°34.007 1.2 213 9.1 101620 89
2002-02-13 10:05 51°8.361 2°34.011 5.4 162 9.2 101620 89
2002-02-13 10:06 51°8.503 2°33.987 10 150 9.2 101610 89
2002-02-13 10:07 51°8.703 2°33.886 9.2 149 9.2 101600 89
2002-02-13 10:08 51°8.908 2°33.887 7.2 151 9.2 101610 89
2002-02-13 10:09 51°8.986 2°33.927 4 205 9.1 101610 89
2002-02-13 10:10 51°8.984 2°33.948 1.8 210 9 101620 88
2002-02-13 10:11 51°8.978 2°33.972 3 202 8.9 101620 88
2002-02-13 10:12 51°8.974 2°33.998 2.8 205 8.9 101620 88
2002-02-13 10:13 51°8.97 2°34.018 2.6 210 8.9 101630 88
2002-02-13 10:14 51°8.965 2°34.036 2 220 8.9 101630 88
2002-02-13 10:15 51°8.961 2°34.054 3.5 201 8.9 101630 88
2002-02-13 10:16 51°9.033 2°34.142 8.2 149 9 101620 88
2002-02-13 10:17 51°9.146 2°34.013 7.1 122 9 101620 87
2002-02-13 10:18 51°9.102 2°33.766 6.8 109 9 101610 87
2002-02-13 10:19 51°9.003 2°33.511 7.3 109 9 101610 87
2002-02-13 10:20 51°8.908 2°33.247 6.4 111 9 101610 86
2002-02-13 10:21 51°8.815 2°32.989 7.1 112 8.9 101620 86
2002-02-13 10:22 51°8.728 2°32.727 6.9 113 8.9 101610 86
2002-02-13 10:23 51°8.662 2°32.457 6.2 109 9 101610 86
2002-02-13 10:24 51°8.584 2°32.187 7.1 106 9 101620 86
2002-02-13 10:25 51°8.496 2°31.932 6.1 107 9 101610 86
2002-02-13 10:26 51°8.418 2°31.675 7 116 9 101610 86
2002-02-13 10:27 51°8.344 2°31.412 6.5 114 9 101610 86
2002-02-13 10:28 51°8.289 2°31.221 2.8 134 9 101620 86
2002-02-13 10:29 51°8.266 2°31.212 1.6 312 9 101630 86
2002-02-13 10:30 51°8.237 2°31.3 5.1 183 9 101630 86
2002-02-13 10:31 51°8.307 2°31.329 7.2 125 9 101620 86
2002-02-13 10:32 51°8.349 2°31.265 3 140 9 101630 86
2002-02-13 10:33 51°8.35 2°31.272 4.4 163 9.1 101640 86
2002-02-13 10:34 51°8.355 2°31.288 3.9 191 9.1 101630 85
2002-02-13 10:35 51°8.356 2°31.313 4.9 208 9.1 101630 85
2002-02-13 10:36 51°8.358 2°31.355 4.8 206 9.1 101620 85
2002-02-13 10:37 51°8.361 2°31.407 4.3 201 9.1 101630 86
2002-02-13 10:38 51°8.364 2°31.453 4.5 202 9.1 101630 86
2002-02-13 10:39 51°8.366 2°31.49 4.2 205 9.1 101630 86
2002-02-13 10:40 51°8.37 2°31.521 4.6 206 9.1 101630 86
2002-02-13 10:41 51°8.374 2°31.548 4.9 203 9.1 101630 86
2002-02-13 10:42 51°8.378 2°31.577 5 201 9.1 101630 86
2002-02-13 10:43 51°8.379 2°31.599 5.1 202 9 101640 86
2002-02-13 10:44 51°8.377 2°31.615 4.2 203 9 101640 86
2002-02-13 10:45 51°8.374 2°31.632 4.7 205 9 101650 86
2002-02-13 10:46 51°8.372 2°31.65 4.2 217 9 101650 86
2002-02-13 10:47 51°8.372 2°31.668 5.1 206 9 101650 86
2002-02-13 10:48 51°8.375 2°31.7 5.7 189 9 101650 86
2002-02-13 10:49 51°8.436 2°31.866 8.7 174 9 101640 86
2002-02-13 10:50 51°8.481 2°32.088 7 179 9 101640 86
2002-02-13 10:51 51°8.531 2°32.329 7.5 176 9 101630 86
2002-02-13 10:52 51°8.587 2°32.562 7.4 174 9 101640 86
2002-02-13 10:53 51°8.645 2°32.804 7.5 173 9 101630 86
2002-02-13 10:54 51°8.701 2°33.035 7.2 176 9 101630 86
2002-02-13 10:55 51°8.757 2°33.269 8.1 178 9 101630 86
2002-02-13 10:56 51°8.807 2°33.513 7.8 172 9 101630 86
2002-02-13 10:57 51°8.856 2°33.751 7 169 9.1 101630 87
2002-02-13 10:58 51°8.907 2°33.998 8 171 9.1 101630 87
2002-02-13 10:59 51°8.958 2°34.238 7.8 176 9 101630 86
2002-02-13 11:00 51°9 2°34.487 6.9 172 9 101630 86
2002-02-13 11:01 51°9.036 2°34.741 7.3 171 8.9 101630 86
2002-02-13 11:02 51°9.068 2°34.995 8 175 8.9 101630 86
2002-02-13 11:03 51°9.1 2°35.248 8.1 175 8.9 101630 85
2002-02-13 11:04 51°9.127 2°35.502 7.8 170 8.9 101630 85
2002-02-13 11:05 51°9.154 2°35.754 8.5 176 8.9 101630 85
2002-02-13 11:06 51°9.18 2°36.015 8.8 175 8.9 101620 85
2002-02-13 11:07 51°9.204 2°36.285 8.4 168 9 101620 85
2002-02-13 11:08 51°9.228 2°36.54 8.4 173 8.9 101620 85
2002-02-13 11:09 51°9.252 2°36.793 7.6 173 8.9 101620 85
2002-02-13 11:10 51°9.274 2°37.056 6.8 173 9 101620 85
2002-02-13 11:11 51°9.291 2°37.317 6.9 174 9 101610 85
2002-02-13 11:12 51°9.309 2°37.575 8.4 172 9 101610 85
2002-02-13 11:13 51°9.32 2°37.845 7.5 174 9 101610 85
2002-02-13 11:14 51°9.335 2°38.111 7.2 168 8.9 101610 85
2002-02-13 11:15 51°9.333 2°38.378 7.2 169 9 101610 85
2002-02-13 11:16 51°9.343 2°38.613 5.5 172 9 101610 85
2002-02-13 11:17 51°9.361 2°38.675 5.1 147 9 101610 85
2002-02-13 11:18 51°9.383 2°38.719 5.2 156 9 101620 85
2002-02-13 11:19 51°9.402 2°38.775 4.9 183 9 101620 85
2002-02-13 11:20 51°9.41 2°38.849 4.4 208 9.1 101620 85
2002-02-13 11:21 51°9.402 2°38.928 3.9 210 9 101620 85
2002-02-13 11:22 51°9.39 2°39.002 0.8 234 9 101620 85
2002-02-13 11:23 51°9.365 2°39.061 3.3 284 9 101620 85
2002-02-13 11:24 51°9.306 2°39.087 1.8 321 9 101620 85
2002-02-13 11:25 51°9.237 2°39.054 2.5 34 9 101620 85
2002-02-13 11:26 51°9.207 2°39.002 3.3 39 9 101620 85
2002-02-13 11:27 51°9.203 2°38.967 4.6 66 9.1 101620 85
2002-02-13 11:28 51°9.221 2°38.927 4.3 82 9 101610 85
2002-02-13 11:29 51°9.247 2°38.903 4.3 82 8.9 101610 84
2002-02-13 11:30 51°9.274 2°38.9 4.8 110 9 101610 85
2002-02-13 11:31 51°9.306 2°38.917 4.2 116 9 101610 85
2002-02-13 11:32 51°9.337 2°38.943 4.5 130 8.9 101600 85
2002-02-13 11:33 51°9.365 2°38.982 4 135 8.9 101610 85
2002-02-13 11:34 51°9.387 2°39.028 3.9 140 9 101610 85
2002-02-13 11:35 51°9.403 2°39.077 3.6 151 9 101610 85
2002-02-13 11:36 51°9.414 2°39.126 4 155 9.1 101610 84
2002-02-13 11:37 51°9.423 2°39.172 4 159 9.1 101610 84
2002-02-13 11:38 51°9.432 2°39.22 4.6 156 9.1 101610 84
2002-02-13 11:39 51°9.447 2°39.271 4.8 143 9.2 101620 84
2002-02-13 11:40 51°9.468 2°39.32 4.4 136 9.2 101620 84
2002-02-13 11:41 51°9.49 2°39.369 4.4 140 9.2 101620 84
2002-02-13 11:42 51°9.514 2°39.417 4.8 137 9.2 101610 83
2002-02-13 11:43 51°9.539 2°39.465 4.5 135 9.2 101610 83
2002-02-13 11:44 51°9.564 2°39.513 4.2 142 9.3 101610 83
2002-02-13 11:45 51°9.59 2°39.568 4.5 149 9.3 101610 83
2002-02-13 11:46 51°9.612 2°39.625 3.7 159 9.3 101610 83
2002-02-13 11:47 51°9.63 2°39.682 4.6 153 9.3 101610 83
2002-02-13 11:48 51°9.646 2°39.737 4.8 157 9.4 101610 83
2002-02-13 11:49 51°9.659 2°39.795 4.5 171 9.4 101610 82
2002-02-13 11:50 51°9.67 2°39.85 4.3 165 9.4 101610 82
2002-02-13 11:51 51°9.681 2°39.905 4.4 166 9.3 101600 81
2002-02-13 11:52 51°9.691 2°39.958 4.6 160 9.3 101600 82
2002-02-13 11:53 51°9.7 2°40.009 4.5 160 9.3 101600 82
2002-02-13 11:54 51°9.71 2°40.061 4.1 159 9.3 101600 82
2002-02-13 11:55 51°9.719 2°40.112 4.4 167 9.3 101600 82
2002-02-13 11:56 51°9.728 2°40.163 4.7 162 9.3 101600 82
2002-02-13 11:57 51°9.74 2°40.215 4.8 150 9.3 101600 82
2002-02-13 11:58 51°9.754 2°40.269 4.5 152 9.3 101590 82
2002-02-13 11:59 51°9.77 2°40.323 4.8 145 9.3 101600 82
2002-02-13 12:00 51°9.788 2°40.376 3.9 159 9.3 101600 82
2002-02-13 12:01 51°9.803 2°40.435 4.3 187 9.3 101600 82
2002-02-13 12:02 51°9.812 2°40.5 4.5 198 9.3 101600 82
2002-02-13 12:03 51°9.821 2°40.572 4.2 200 9.3 101600 82
2002-02-13 12:04 51°9.83 2°40.647 4.2 200 9.3 101590 82
2002-02-13 12:05 51°9.839 2°40.725 4.2 196 9.3 101590 82
2002-02-13 12:06 51°9.846 2°40.81 3.9 211 9.2 101590 82
2002-02-13 12:07 51°9.835 2°40.905 0.5 227 9.2 101600 82
2002-02-13 12:08 51°9.803 2°40.988 1.9 273 9.1 101600 83
2002-02-13 12:09 51°9.756 2°41.044 2.4 303 9.1 101600 83
2002-02-13 12:11 51°9.698 2°41.083 2.7 329 9.1 -999 83
2002-02-13 12:12 51°9.678 2°41.109 2.7 318 9.2 101600 83
2002-02-13 12:13 51°9.66 2°41.124 3.2 352 9.2 101600 83
2002-02-13 12:14 51°9.638 2°41.109 3.1 16 9.1 101600 83
2002-02-13 12:15 51°9.619 2°41.06 3.3 318 9 101600 83
2002-02-13 12:16 51°9.621 2°41.006 4.3 53 9 101600 83
2002-02-13 12:17 51°9.64 2°40.966 4.8 67 9 101600 83
2002-02-13 12:19 51°9.689 2°40.924 4.4 80 8.9 -999 83
2002-02-13 12:20 51°9.715 2°40.927 4.1 86 8.9 101590 84
2002-02-13 12:21 51°9.752 2°40.927 4.5 91 8.9 101590 84
2002-02-13 12:21 51°9.785 2°40.93 5 82 8.8 101600 84
2002-02-13 12:22 51°9.817 2°40.929 5.1 74 8.8 101600 84
2002-02-13 12:23 51°9.842 2°40.913 4.6 64 8.8 101590 85
2002-02-13 12:24 51°9.859 2°40.883 4.1 48 8.8 101600 85
2002-02-13 12:25 51°9.858 2°40.838 3.4 42 8.8 101600 85
2002-02-13 12:26 51°9.853 2°40.783 4 48 8.9 101600 85
2002-02-13 12:27 51°9.852 2°40.728 3.3 42 8.9 101600 85
2002-02-13 12:28 51°9.837 2°40.683 1.3 21 8.8 101600 84
2002-02-13 12:29 51°9.817 2°40.644 2.9 27 8.9 101600 85
2002-02-13 12:30 51°9.8 2°40.602 3.4 32 8.9 101600 85
2002-02-13 12:31 51°9.783 2°40.557 3.2 27 8.9 101600 85
2002-02-13 12:32 51°9.769 2°40.512 2.7 28 8.9 101600 84
2002-02-13 12:33 51°9.756 2°40.466 2.9 45 8.8 101600 84
2002-02-13 12:34 51°9.745 2°40.419 3.4 32 8.8 101600 84
2002-02-13 12:35 51°9.735 2°40.37 3.3 26 8.8 101600 84
2002-02-13 12:36 51°9.724 2°40.322 3.1 27 8.8 101600 84
2002-02-13 12:37 51°9.716 2°40.273 3.9 43 8.9 101600 84
2002-02-13 12:38 51°9.71 2°40.221 3.6 33 8.9 101600 84
2002-02-13 12:39 51°9.703 2°40.171 3 36 8.9 101600 84
2002-02-13 12:40 51°9.694 2°40.123 3.8 26 8.9 101600 84
2002-02-13 12:41 51°9.688 2°40.072 3.5 32 8.9 101600 84
2002-02-13 12:42 51°9.683 2°40.021 3.1 42 8.9 101600 84
2002-02-13 12:43 51°9.674 2°39.973 3.1 24 8.9 101600 85
2002-02-13 12:44 51°9.659 2°39.928 2.7 31 8.9 101600 85
2002-02-13 12:45 51°9.645 2°39.883 3.3 33 8.9 101600 85
2002-02-13 12:46 51°9.636 2°39.837 3.4 134 8.9 101600 85
2002-02-13 12:47 51°9.632 2°39.789 3.9 35 8.9 101600 85
2002-02-13 12:48 51°9.633 2°39.737 4.4 55 8.9 101600 85
2002-02-13 12:49 51°9.647 2°39.688 4.2 58 8.9 101590 85
2002-02-13 12:50 51°9.67 2°39.662 4.8 64 8.8 101590 85
2002-02-13 12:51 51°9.696 2°39.658 4.4 83 8.8 101590 85
2002-02-13 12:52 51°9.727 2°39.677 4.4 104 8.8 101590 85
2002-02-13 12:53 51°9.757 2°39.711 4.6 115 8.8 101590 86
2002-02-13 12:54 51°9.781 2°39.745 4.9 109 8.8 101590 86
2002-02-13 12:55 51°9.801 2°39.776 4.2 82 8.8 101590 86
2002-02-13 12:56 51°9.817 2°39.802 4.7 69 8.8 101580 86
2002-02-13 12:57 51°9.831 2°39.829 3.8 68 8.8 101580 86
2002-02-13 12:58 51°9.88 2°39.846 7.6 131 8.8 101580 86
2002-02-13 12:59 51°9.973 2°40.044 10.9 155 8.7 101580 86
2002-02-13 13:00 51°10.079 2°40.379 11.2 148 8.8 101570 86
2002-02-13 13:01 51°10.19 2°40.731 12.1 148 8.8 101570 86
2002-02-13 13:02 51°10.3 2°41.077 11.2 148 8.9 101570 86
2002-02-13 13:03 51°10.411 2°41.43 12 147 8.9 101560 86
2002-02-13 13:04 51°10.526 2°41.788 11.9 149 8.9 101570 86
2002-02-13 13:05 51°10.638 2°42.138 11.2 147 8.9 101560 86
2002-02-13 13:06 51°10.75 2°42.482 12.4 150 8.9 101570 86
2002-02-13 13:07 51°10.865 2°42.84 12.3 151 8.9 101560 86
2002-02-13 13:08 51°10.977 2°43.186 13.1 154 8.9 101560 86
2002-02-13 13:09 51°11.096 2°43.539 13.4 155 8.8 101550 86
2002-02-13 13:10 51°11.206 2°43.888 13.4 157 8.9 101550 86
2002-02-13 13:11 51°11.308 2°44.257 12.6 156 8.8 101560 86
2002-02-13 13:12 51°11.409 2°44.613 12.3 154 8.9 101560 86
2002-02-13 13:13 51°11.512 2°44.985 12.8 156 8.9 101550 86
2002-02-13 13:14 51°11.61 2°45.35 12.6 157 8.9 101550 86
2002-02-13 13:15 51°11.71 2°45.715 12.5 154 8.9 101550 86
2002-02-13 13:16 51°11.808 2°46.074 11.9 156 8.8 101550 86
2002-02-13 13:17 51°11.91 2°46.448 13.5 154 8.8 101560 86
2002-02-13 13:18 51°12.008 2°46.81 12.5 157 8.8 101550 86
2002-02-13 13:19 51°12.111 2°47.177 11.8 153 8.8 101560 86
2002-02-13 13:20 51°12.216 2°47.546 13.7 153 8.8 101540 86
2002-02-13 13:21 51°12.338 2°47.896 14.9 152 8.8 101540 85
2002-02-13 13:22 51°12.459 2°48.238 12.9 153 8.7 101540 84
2002-02-13 13:23 51°12.583 2°48.587 13.3 151 8.8 101540 84
2002-02-13 13:24 51°12.705 2°48.939 13.5 151 8.7 101550 84
2002-02-13 13:25 51°12.837 2°49.291 14.5 153 8.8 101550 83
2002-02-13 13:26 51°12.967 2°49.636 14.5 153 8.8 101540 83
2002-02-13 13:27 51°13.093 2°49.977 14.2 150 8.8 101540 83
2002-02-13 13:28 51°13.227 2°50.319 14 150 8.8 101550 83
2002-02-13 13:29 51°13.371 2°50.648 14.8 143 8.8 101540 83
2002-02-13 13:30 51°13.525 2°50.929 10.9 154 8.8 101550 82
2002-02-13 13:31 51°13.557 2°51.079 5.2 198 8.8 101550 83
2002-02-13 13:32 51°13.58 2°51.105 2.7 222 8.8 101570 82
2002-02-13 13:33 51°13.577 2°51.171 3.9 222 8.7 101560 83
2002-02-13 13:34 51°13.574 2°51.232 3.8 222 8.7 101560 82
2002-02-13 13:35 51°13.568 2°51.302 3.9 218 8.6 101550 82
2002-02-13 13:36 51°13.553 2°51.389 3.8 221 8.7 101550 83
2002-02-13 13:37 51°13.52 2°51.469 2.4 253 8.6 101550 82
2002-02-13 13:38 51°13.474 2°51.513 4.2 275 8.7 101550 82
2002-02-13 13:39 51°13.436 2°51.505 2.2 313 8.7 101560 82
2002-02-13 13:40 51°13.407 2°51.481 3.5 303 8.8 101550 83
2002-02-13 13:41 51°13.377 2°51.48 4.3 267 8.8 101550 82
2002-02-13 13:42 51°13.345 2°51.491 3.9 288 8.8 101550 82
2002-02-13 13:43 51°13.326 2°51.469 4.4 341 8.9 101550 83
2002-02-13 13:44 51°13.325 2°51.412 4.1 348 8.8 101550 82
2002-02-13 13:45 51°13.326 2°51.359 3.6 2 8.8 101550 82
2002-02-13 13:46 51°13.322 2°51.315 4.8 355 8.8 101560 82
2002-02-13 13:47 51°13.317 2°51.267 5.1 357 8.7 101560 81
2002-02-13 13:48 51°13.312 2°51.213 5 359 8.7 101570 82
2002-02-13 13:49 51°13.302 2°51.161 5 1 8.7 101570 82
2002-02-13 13:50 51°13.299 2°51.103 5.1 353 8.7 101570 82
2002-02-13 13:51 51°13.28 2°51.063 4.9 332 8.7 101570 82
2002-02-13 13:52 51°13.257 2°51.02 4.4 349 8.7 101570 82
2002-02-13 13:53 51°13.236 2°50.975 4.2 315 8.6 101570 82
2002-02-13 13:54 51°13.204 2°50.947 4.1 304 8.7 101580 82
2002-02-13 13:55 51°13.176 2°50.909 3.1 326 8.8 101570 83
2002-02-13 13:56 51°13.149 2°50.868 3 333 8.9 101570 82
2002-02-13 13:57 51°13.121 2°50.827 3.7 333 8.9 101570 82
2002-02-13 13:58 51°13.093 2°50.786 4.4 337 8.8 101580 81
2002-02-13 13:59 51°13.066 2°50.747 4.6 339 8.8 101580 82
2002-02-13 14:00 51°13.041 2°50.708 5.5 347 8.7 101590 82
2002-02-13 14:01 51°13.021 2°50.668 4.7 350 8.7 101590 82
2002-02-13 14:02 51°13.001 2°50.628 3.9 339 8.7 101590 83
2002-02-13 14:03 51°12.975 2°50.598 4.6 323 8.7 101590 83
2002-02-13 14:04 51°12.942 2°50.583 4 307 8.7 101590 84
2002-02-13 14:05 51°12.911 2°50.565 4.7 318 8.9 101590 84
2002-02-13 14:06 51°12.893 2°50.546 4.8 327 8.9 101590 82
2002-02-13 14:07 51°12.883 2°50.526 5.1 345 8.8 101600 82
2002-02-13 14:08 51°12.878 2°50.505 4.6 357 8.7 101600 82
2002-02-13 14:09 51°12.876 2°50.481 5.4 9 8.7 101590 83
2002-02-13 14:10 51°12.877 2°50.419 4.9 27 8.7 101590 83
2002-02-13 14:11 51°12.885 2°50.324 4.9 39 8.7 101590 83
2002-02-13 14:12 51°12.904 2°50.259 6.2 317 8.7 101590 83
2002-02-13 14:13 51°12.928 2°50.219 5.8 48 8.7 101590 83
2002-02-13 14:14 51°12.952 2°50.204 6.1 64 8.7 101590 84
2002-02-13 14:15 51°12.978 2°50.204 5.8 80 8.7 101580 84
2002-02-13 14:16 51°13.026 2°50.224 9.9 137 8.6 101590 84
2002-02-13 14:17 51°13.169 2°50.436 14.2 137 8.6 101570 84
2002-02-13 14:18 51°13.354 2°50.684 13.7 138 8.6 101570 84
2002-02-13 14:19 51°13.521 2°50.95 13.4 133 8.7 101570 85
2002-02-13 14:20 51°13.625 2°51.053 10.2 137 8.7 101580 84
2002-02-13 14:21 51°13.669 2°51.207 10.4 193 8.6 101580 84
2002-02-13 14:22 51°13.595 2°51.324 4.7 271 8.6 101580 85
2002-02-13 14:23 51°13.538 2°51.25 4.5 12 8.6 101590 85
2002-02-13 14:24 51°13.549 2°51.051 5.9 57 8.6 101590 85
2002-02-13 14:25 51°13.583 2°50.94 5.3 13 8.6 101590 85
2002-02-13 14:26 51°13.543 2°50.884 2.5 208 8.6 101590 85
2002-02-13 14:27 51°13.511 2°51.016 8.9 174 8.7 101580 85
2002-02-13 14:28 51°13.517 2°51.095 7.6 203 8.6 101580 85
2002-02-13 14:29 51°13.527 2°51.117 5.1 227 8.6 101590 85
2002-02-13 14:30 51°13.534 2°51.142 2.5 218 8.6 101590 85
2002-02-13 14:31 51°13.54 2°51.168 2.8 220 8.6 101600 86
2002-02-13 14:32 51°13.544 2°51.196 2 240 8.6 101600 86
2002-02-13 14:33 51°13.546 2°51.225 1.6 221 8.5 101600 86
2002-02-13 14:34 51°13.55 2°51.256 3.4 221 8.6 101600 86
2002-02-13 14:35 51°13.554 2°51.287 6 204 8.6 101600 86
2002-02-13 14:36 51°13.557 2°51.319 7.1 213 8.6 101600 86
2002-02-13 14:37 51°13.592 2°51.489 13.7 150 8.6 101600 86
2002-02-13 14:38 51°13.698 2°51.816 14.3 155 8.6 101590 86
2002-02-13 14:39 51°13.789 2°52.177 13.3 151 8.6 101600 86
2002-02-13 14:40 51°13.877 2°52.539 14.6 151 8.6 101600 86
2002-02-13 14:41 51°13.959 2°52.903 14 156 8.7 101600 86
2002-02-13 14:42 51°14.039 2°53.265 14.1 153 8.7 101600 87
2002-02-13 14:43 51°14.113 2°53.622 14.7 156 8.7 101600 87
2002-02-13 14:44 51°14.184 2°53.988 13.4 150 8.7 101600 87
2002-02-13 14:45 51°14.255 2°54.348 15.5 153 8.7 101600 86
2002-02-13 14:46 51°14.321 2°54.709 14.5 155 8.7 101590 87
2002-02-13 14:47 51°14.348 2°55.03 11.9 171 8.7 101590 86
2002-02-13 14:48 51°14.273 2°55.234 8.2 188 8.7 101610 86
2002-02-13 14:50 51°14.178 2°55.368 5.5 200 8.6 101610 86
2002-02-13 14:51 51°14.09 2°55.434 2.7 220 8.7 101620 87
2002-02-13 14:52 51°14.014 2°55.49 2 239 8.6 101620 86
2002-02-13 14:53 51°13.94 2°55.546 2.5 222 8.6 101620 86
2002-02-13 14:54 51°13.86 2°55.606 4.9 195 8.6 101620 86
2002-02-13 14:55 51°13.786 2°55.668 4.9 208 8.6 101630 86
2002-02-13 14:56 51°13.744 2°55.727 3.2 202 8.6 101630 86
2002-02-13 14:57 51°13.718 2°55.782 2.2 207 8.6 101640 86
2002-02-13 14:58 51°13.701 2°55.843 1.9 229 8.7 101630 86
2002-02-13 14:59 51°13.689 2°55.901 5.4 207 8.7 101640 86
2002-02-13 15:00 51°13.688 2°55.904 2.7 232 8.7 101640 85
2002-02-13 15:01 51°13.688 2°55.905 4.1 204 8.7 101640 85